createdAt,value
2019-03-15T00:01:41.780Z,44.81
2019-03-15T00:04:11.524Z,45.23
2019-03-15T00:06:41.250Z,44.93
2019-03-15T00:09:11.041Z,45.14
2019-03-15T00:11:40.765Z,45.14
2019-03-15T00:14:10.612Z,45.00
2019-03-15T00:16:40.400Z,45.25
2019-03-15T00:19:10.101Z,45.02
2019-03-15T00:21:39.774Z,45.13
2019-03-15T00:24:09.491Z,45.52
2019-03-15T00:26:39.251Z,45.59
2019-03-15T00:29:09.028Z,45.51
2019-03-15T00:31:38.722Z,45.66
2019-03-15T00:34:09.446Z,45.60
2019-03-15T00:36:39.157Z,45.51
2019-03-15T00:39:08.946Z,45.34
2019-03-15T00:41:38.698Z,45.16
2019-03-15T00:44:08.359Z,44.88
2019-03-15T00:46:38.118Z,43.95
2019-03-15T00:49:07.850Z,42.86
2019-03-15T00:51:37.623Z,41.25
2019-03-15T00:54:07.335Z,40.46
2019-03-15T00:56:37.067Z,38.91
2019-03-15T00:59:54.917Z,38.68
2019-03-15T01:02:27.062Z,37.88
2019-03-15T01:04:56.823Z,37.25
2019-03-15T01:07:26.532Z,36.93
2019-03-15T01:09:56.230Z,36.61
2019-03-15T01:12:25.908Z,36.64
2019-03-15T01:15:28.766Z,36.59
2019-03-15T01:17:58.437Z,35.53
2019-03-15T01:20:28.121Z,35.53
2019-03-15T01:22:57.801Z,36.02
2019-03-15T01:25:27.494Z,35.69
2019-03-15T01:27:57.178Z,35.59
2019-03-15T01:30:26.947Z,35.22
2019-03-15T01:32:56.621Z,35.44
2019-03-15T01:35:26.271Z,35.31
2019-03-15T01:37:55.929Z,35.28
2019-03-15T01:40:25.630Z,35.31
2019-03-15T01:42:55.389Z,35.16
2019-03-15T01:45:25.060Z,35.18
2019-03-15T01:47:54.768Z,35.11
2019-03-15T01:50:50.376Z,34.87
2019-03-15T01:53:20.225Z,34.77
2019-03-15T01:56:27.391Z,34.78
2019-03-15T01:58:57.279Z,34.78
2019-03-15T02:04:57.633Z,34.72
2019-03-15T02:07:29.318Z,34.61
2019-03-15T02:10:32.522Z,34.66
2019-03-15T02:13:02.513Z,34.48
2019-03-15T02:15:32.220Z,34.33
2019-03-15T02:18:01.899Z,34.05
2019-03-15T02:20:31.652Z,33.91
2019-03-15T02:23:01.357Z,33.77
2019-03-15T02:25:31.035Z,33.97
2019-03-15T02:28:04.094Z,33.99
2019-03-15T02:30:34.326Z,33.81
2019-03-15T02:33:05.347Z,33.83
2019-03-15T02:35:35.622Z,33.82
2019-03-15T02:38:05.357Z,33.87
2019-03-15T02:40:35.034Z,33.92
2019-03-15T02:43:04.699Z,33.66
2019-03-15T02:45:34.364Z,33.75
2019-03-15T02:48:04.114Z,33.81
2019-03-15T02:50:33.777Z,33.57
2019-03-15T02:53:03.452Z,33.66
2019-03-15T02:55:33.106Z,33.70
2019-03-15T02:59:18.064Z,33.68
2019-03-15T03:02:23.425Z,33.60
2019-03-15T03:04:53.112Z,33.68
2019-03-15T03:07:44.235Z,33.63
2019-03-15T03:10:13.962Z,33.47
2019-03-15T03:12:44.111Z,33.37
2019-03-15T03:15:14.229Z,33.47
2019-03-15T03:17:43.880Z,33.17
2019-03-15T03:20:13.701Z,33.14
2019-03-15T03:22:43.477Z,33.27
2019-03-15T03:25:13.257Z,33.23
2019-03-15T03:27:42.941Z,33.24
2019-03-15T03:30:16.255Z,33.21
2019-03-15T03:32:44.894Z,33.26
2019-03-15T03:35:14.743Z,33.27
2019-03-15T03:37:45.148Z,33.21
2019-03-15T03:40:15.121Z,33.32
2019-03-15T03:42:44.828Z,33.41
2019-03-15T03:45:14.652Z,33.46
2019-03-15T03:47:44.324Z,33.46
2019-03-15T03:50:14.048Z,33.43
2019-03-15T03:52:43.745Z,33.27
2019-03-15T03:55:13.476Z,33.12
2019-03-15T03:57:43.410Z,32.85
2019-03-15T04:00:13.455Z,32.93
2019-03-15T04:02:43.288Z,32.66
2019-03-15T04:05:13.185Z,32.18
2019-03-15T04:08:04.340Z,32.05
2019-03-15T04:10:34.081Z,31.98
2019-03-15T04:13:03.799Z,31.37
2019-03-15T04:15:33.444Z,31.48
2019-03-15T04:18:44.786Z,31.42
2019-03-15T04:22:06.399Z,31.36
2019-03-15T04:25:27.194Z,31.25
2019-03-15T04:27:57.117Z,31.42
2019-03-15T04:30:26.882Z,31.38
2019-03-15T04:32:56.952Z,31.19
2019-03-15T04:35:27.808Z,31.43
2019-03-15T04:37:57.509Z,31.36
2019-03-15T04:40:27.166Z,31.43
2019-03-15T04:42:56.897Z,31.52
2019-03-15T04:45:26.570Z,31.57
2019-03-15T04:47:56.236Z,31.38
2019-03-15T04:50:25.911Z,31.46
2019-03-15T04:52:55.574Z,31.50
2019-03-15T04:55:25.251Z,31.55
2019-03-15T04:58:58.329Z,31.55
2019-03-15T05:01:28.035Z,31.55
2019-03-15T05:03:57.753Z,31.55
2019-03-15T05:06:27.429Z,31.69
2019-03-15T05:11:36.896Z,31.92
2019-03-15T05:14:06.659Z,31.98
2019-03-15T05:16:36.344Z,31.90
2019-03-15T05:19:06.065Z,32.00
2019-03-15T05:21:35.737Z,32.19
2019-03-15T05:24:05.472Z,32.28
2019-03-15T05:26:36.223Z,32.41
2019-03-15T05:29:05.970Z,32.55
2019-03-15T05:31:35.758Z,32.58
2019-03-15T05:34:05.499Z,32.63
2019-03-15T05:36:35.182Z,32.67
2019-03-15T05:39:06.119Z,32.76
2019-03-15T05:41:35.798Z,32.59
2019-03-15T05:44:05.480Z,32.63
2019-03-15T05:46:35.175Z,32.88
2019-03-15T05:49:04.852Z,32.87
2019-03-15T05:51:34.542Z,32.93
2019-03-15T05:54:04.307Z,33.05
2019-03-15T05:56:34.030Z,33.05
2019-03-15T05:59:03.824Z,33.24
2019-03-15T06:01:33.527Z,33.31
2019-03-15T06:04:03.214Z,33.44
2019-03-15T06:06:32.874Z,33.59
2019-03-15T06:10:00.389Z,33.65
2019-03-15T06:12:30.114Z,33.34
2019-03-15T06:14:59.881Z,33.24
2019-03-15T06:17:29.497Z,33.40
2019-03-15T06:19:59.317Z,33.51
2019-03-15T06:22:28.982Z,33.78
2019-03-15T06:24:58.755Z,33.85
2019-03-15T06:27:31.084Z,33.83
2019-03-15T06:29:59.952Z,33.98
2019-03-15T06:32:29.632Z,34.04
2019-03-15T06:34:59.338Z,34.37
2019-03-15T06:37:29.010Z,34.67
2019-03-15T06:39:58.777Z,34.88
2019-03-15T06:42:28.466Z,35.21
2019-03-15T06:44:58.387Z,35.39
2019-03-15T06:47:28.152Z,35.71
2019-03-15T06:49:57.862Z,35.98
2019-03-15T06:52:27.537Z,36.31
2019-03-15T06:54:57.245Z,36.65
2019-03-15T06:57:26.992Z,36.72
2019-03-15T07:00:00.362Z,36.87
2019-03-15T07:02:30.040Z,36.84
2019-03-15T07:04:59.808Z,36.86
2019-03-15T07:07:29.486Z,36.88
2019-03-15T07:09:59.251Z,36.63
2019-03-15T07:12:29.023Z,36.62
2019-03-15T07:14:58.728Z,36.56
2019-03-15T07:17:28.407Z,36.58
2019-03-15T07:19:59.048Z,36.38
2019-03-15T07:22:28.722Z,36.31
2019-03-15T07:24:58.392Z,36.17
2019-03-15T07:27:28.107Z,35.97
2019-03-15T07:30:00.031Z,35.74
2019-03-15T07:32:29.210Z,35.62
2019-03-15T07:34:58.879Z,35.36
2019-03-15T07:37:28.584Z,35.31
2019-03-15T07:39:58.253Z,35.11
2019-03-15T07:42:27.973Z,35.02
2019-03-15T07:44:57.680Z,34.98
2019-03-15T07:47:27.357Z,35.17
2019-03-15T07:49:57.046Z,35.17
2019-03-15T07:52:26.732Z,35.26
2019-03-15T07:54:56.398Z,35.02
2019-03-15T07:57:26.045Z,34.79
2019-03-15T07:59:55.723Z,34.91
2019-03-15T08:02:25.379Z,34.92
2019-03-15T08:04:55.082Z,34.62
2019-03-15T08:07:35.811Z,34.78
2019-03-15T08:09:56.122Z,34.75
2019-03-15T08:12:25.789Z,34.59
2019-03-15T08:14:55.481Z,34.88
2019-03-15T08:17:25.160Z,35.33
2019-03-15T08:19:54.835Z,35.72
2019-03-15T08:22:24.522Z,36.30
2019-03-15T08:24:54.268Z,36.30
2019-03-15T08:27:23.946Z,36.21
2019-03-15T08:29:53.640Z,36.54
2019-03-15T08:32:23.289Z,36.54
2019-03-15T08:34:52.964Z,36.92
2019-03-15T08:37:22.638Z,37.21
2019-03-15T08:39:52.341Z,37.21
2019-03-15T08:42:22.061Z,37.24
2019-03-15T08:44:51.761Z,37.10
2019-03-15T08:47:21.935Z,37.23
2019-03-15T08:49:52.001Z,37.16
2019-03-15T08:52:21.696Z,37.22
2019-03-15T08:55:04.218Z,37.20
2019-03-15T08:57:22.744Z,37.23
2019-03-15T08:59:57.155Z,37.42
2019-03-15T09:02:23.876Z,37.42
2019-03-15T09:04:54.708Z,37.51
2019-03-15T09:07:24.424Z,37.46
2019-03-15T09:09:54.064Z,37.52
2019-03-15T09:18:50.840Z,37.88
2019-03-15T09:24:45.937Z,38.07
2019-03-15T09:27:15.611Z,37.02
2019-03-15T09:29:45.296Z,34.92
2019-03-15T09:32:15.011Z,33.33
2019-03-15T09:34:44.743Z,31.79
2019-03-15T09:37:14.497Z,30.88
2019-03-15T09:39:44.211Z,29.93
2019-03-15T09:42:14.134Z,29.31
2019-03-15T09:44:44.204Z,29.01
2019-03-15T09:47:13.877Z,28.60
2019-03-15T09:49:43.607Z,28.25
2019-03-15T09:52:13.268Z,28.00
2019-03-15T09:54:43.028Z,27.86
2019-03-15T09:57:12.773Z,27.64
2019-03-15T09:59:42.542Z,28.05
2019-03-15T10:02:12.372Z,27.96
2019-03-15T10:04:42.190Z,28.20
2019-03-15T10:07:11.936Z,28.35
2019-03-15T10:09:46.047Z,28.38
2019-03-15T10:12:12.991Z,28.30
2019-03-15T10:14:42.768Z,28.59
2019-03-15T10:17:12.490Z,28.60
2019-03-15T10:19:42.320Z,28.93
2019-03-15T10:22:15.022Z,29.05
2019-03-15T10:24:44.857Z,29.16
2019-03-15T10:27:14.619Z,29.07
2019-03-15T10:29:44.371Z,29.25
2019-03-15T10:32:14.349Z,29.15
2019-03-15T10:34:44.094Z,29.16
2019-03-15T10:37:14.059Z,28.96
2019-03-15T10:39:43.819Z,28.95
2019-03-15T10:43:06.436Z,29.20
2019-03-15T10:46:01.365Z,29.18
2019-03-15T10:48:29.935Z,29.36
2019-03-15T10:50:59.692Z,29.33
2019-03-15T10:53:29.562Z,29.87
2019-03-15T10:56:00.613Z,29.81
2019-03-15T10:58:30.802Z,29.68
2019-03-15T11:01:00.762Z,29.42
2019-03-15T11:03:31.691Z,29.51
2019-03-15T11:06:01.576Z,29.24
2019-03-15T11:08:31.263Z,29.33
2019-03-15T11:11:01.033Z,29.44
2019-03-15T11:13:30.885Z,29.28
2019-03-15T11:16:00.746Z,29.44
2019-03-15T11:18:30.850Z,29.46
2019-03-15T11:21:00.614Z,29.41
2019-03-15T11:23:30.414Z,29.43
2019-03-15T11:26:12.736Z,29.46
2019-03-15T11:28:31.582Z,29.44
2019-03-15T11:31:01.370Z,29.52
2019-03-15T11:33:31.125Z,29.66
2019-03-15T11:36:00.865Z,29.50
2019-03-15T11:38:30.561Z,29.55
2019-03-15T11:41:00.249Z,29.50
2019-03-15T11:43:30.041Z,29.54
2019-03-15T11:45:59.980Z,29.47
2019-03-15T11:48:29.808Z,29.51
2019-03-15T11:50:59.534Z,29.23
2019-03-15T11:53:29.339Z,29.39
2019-03-15T11:55:59.205Z,29.74
2019-03-15T11:58:28.949Z,29.90
2019-03-15T12:00:58.718Z,29.86
2019-03-15T12:03:28.571Z,29.96
2019-03-15T12:05:58.325Z,29.90
2019-03-15T12:08:28.013Z,29.83
2019-03-15T12:10:57.891Z,29.77
2019-03-15T12:13:27.661Z,29.79
2019-03-15T12:15:57.394Z,29.99
2019-03-15T12:18:27.114Z,30.15
2019-03-15T12:20:57.011Z,30.12
2019-03-15T12:23:26.801Z,30.25
2019-03-15T12:25:56.434Z,30.45
2019-03-15T12:28:26.169Z,30.54
2019-03-15T12:30:55.971Z,30.67
2019-03-15T12:33:25.688Z,30.83
2019-03-15T12:35:55.370Z,31.00
2019-03-15T12:38:25.077Z,31.26
2019-03-15T12:40:54.941Z,31.34
2019-03-15T12:43:24.736Z,31.50
2019-03-15T12:45:54.456Z,31.66
2019-03-15T12:48:24.142Z,31.81
2019-03-15T12:50:54.661Z,32.10
2019-03-15T12:53:24.376Z,32.23
2019-03-15T12:55:54.103Z,32.28
2019-03-15T12:58:23.854Z,32.52
2019-03-15T13:00:53.651Z,32.67
2019-03-15T13:03:23.369Z,32.86
2019-03-15T13:05:53.064Z,33.04
2019-03-15T13:08:22.761Z,33.21
2019-03-15T13:10:52.487Z,33.58
2019-03-15T13:13:22.269Z,33.79
2019-03-15T13:15:51.978Z,33.98
2019-03-15T13:18:21.811Z,34.27
2019-03-15T13:20:51.614Z,34.54
2019-03-15T13:23:21.364Z,34.80
2019-03-15T13:25:51.059Z,35.09
2019-03-15T13:28:20.757Z,35.27
2019-03-15T13:30:51.525Z,35.49
2019-03-15T13:33:21.445Z,35.69
2019-03-15T13:35:51.197Z,35.91
2019-03-15T13:38:21.021Z,36.03
2019-03-15T13:40:50.723Z,36.22
2019-03-15T13:43:20.810Z,36.56
2019-03-15T13:45:50.733Z,36.56
2019-03-15T13:48:20.592Z,36.79
2019-03-15T13:50:50.377Z,36.84
2019-03-15T13:53:21.216Z,37.04
2019-03-15T13:55:50.937Z,37.04
2019-03-15T13:58:20.664Z,37.19
2019-03-15T14:00:50.631Z,37.39
2019-03-15T14:03:20.370Z,37.39
2019-03-15T14:05:50.305Z,37.37
2019-03-15T14:08:20.221Z,37.46
2019-03-15T14:10:50.147Z,37.57
2019-03-15T14:13:20.998Z,37.57
2019-03-15T14:15:50.847Z,37.47
2019-03-15T14:18:21.916Z,37.37
2019-03-15T14:20:51.909Z,37.17
2019-03-15T14:23:21.728Z,36.92
2019-03-15T14:25:51.485Z,36.80
2019-03-15T14:28:21.232Z,36.22
2019-03-15T14:30:51.114Z,36.15
2019-03-15T14:33:20.801Z,35.81
2019-03-15T14:35:50.695Z,34.73
2019-03-15T14:38:20.442Z,34.73
2019-03-15T14:40:50.440Z,34.77
2019-03-15T14:43:20.487Z,34.44
2019-03-15T14:45:50.664Z,33.97
2019-03-15T14:48:20.740Z,33.59
2019-03-15T14:50:50.706Z,33.08
2019-03-15T14:53:20.746Z,32.63
2019-03-15T14:55:50.665Z,32.38
2019-03-15T14:58:20.383Z,32.08
2019-03-15T15:00:50.069Z,31.99
2019-03-15T15:03:19.964Z,31.81
2019-03-15T15:05:49.890Z,31.31
2019-03-15T15:08:19.643Z,31.32
2019-03-15T15:10:49.404Z,31.33
2019-03-15T15:13:19.277Z,31.19
2019-03-15T15:15:49.273Z,30.97
2019-03-15T15:18:19.209Z,31.09
2019-03-15T15:20:48.962Z,31.28
2019-03-15T15:23:18.854Z,31.26
2019-03-15T15:25:48.724Z,31.13
2019-03-15T15:28:18.400Z,31.01
2019-03-15T15:30:48.169Z,31.25
2019-03-15T15:33:18.179Z,31.64
2019-03-15T15:35:48.015Z,31.41
2019-03-15T15:38:17.837Z,31.53
2019-03-15T15:40:47.730Z,31.71
2019-03-15T15:43:17.579Z,31.60
2019-03-15T15:45:47.371Z,31.64
2019-03-15T15:48:17.305Z,31.75
2019-03-15T15:50:47.150Z,31.70
2019-03-15T15:53:17.005Z,31.69
2019-03-15T15:55:46.796Z,31.79
2019-03-15T15:58:18.175Z,31.83
2019-03-15T16:00:48.320Z,31.94
2019-03-15T16:03:18.304Z,31.79
2019-03-15T16:05:48.186Z,31.89
2019-03-15T16:08:18.049Z,31.83
2019-03-15T16:10:47.973Z,31.81
2019-03-15T16:13:17.900Z,31.50
2019-03-15T16:15:48.620Z,31.57
2019-03-15T16:18:18.409Z,31.84
2019-03-15T16:20:48.312Z,32.16
2019-03-15T16:23:18.138Z,32.63
2019-03-15T16:25:48.028Z,33.01
2019-03-15T16:28:30.555Z,33.31
2019-03-15T16:30:49.359Z,33.42
2019-03-15T16:33:19.115Z,33.66
2019-03-15T16:35:48.961Z,34.73
2019-03-15T16:38:18.762Z,35.08
2019-03-15T16:40:48.550Z,35.37
2019-03-15T16:43:18.387Z,35.55
2019-03-15T16:45:48.302Z,35.91
2019-03-15T16:48:18.105Z,36.02
2019-03-15T16:50:47.887Z,36.24
2019-03-15T16:53:17.686Z,36.53
2019-03-15T16:55:47.605Z,36.82
2019-03-15T16:58:17.326Z,37.08
2019-03-15T17:00:47.996Z,37.32
2019-03-15T17:03:17.930Z,37.53
2019-03-15T17:05:47.807Z,37.74
2019-03-15T17:08:18.726Z,37.90
2019-03-15T17:10:48.510Z,38.02
2019-03-15T17:13:18.327Z,38.12
2019-03-15T17:15:48.323Z,38.23
2019-03-15T17:18:18.399Z,38.30
2019-03-15T17:20:48.171Z,38.26
2019-03-15T17:23:18.103Z,38.24
2019-03-15T17:25:47.835Z,38.14
2019-03-15T17:28:17.742Z,37.84
2019-03-15T17:30:47.582Z,37.49
2019-03-15T17:33:17.294Z,36.97
2019-03-15T17:35:50.285Z,36.73
2019-03-15T17:38:20.144Z,36.65
2019-03-15T17:40:49.931Z,36.65
2019-03-15T17:43:19.725Z,36.29
2019-03-15T17:45:49.844Z,36.14
2019-03-15T17:48:19.516Z,35.81
2019-03-15T17:50:49.232Z,35.50
2019-03-15T17:53:19.070Z,35.21
2019-03-15T17:55:49.194Z,34.97
2019-03-15T17:58:18.947Z,35.00
2019-03-15T18:00:49.310Z,35.12
2019-03-15T18:03:21.835Z,34.74
2019-03-15T18:05:51.158Z,34.66
2019-03-15T18:08:20.879Z,34.32
2019-03-15T18:10:50.706Z,34.32
2019-03-15T18:13:20.536Z,34.13
2019-03-15T18:15:50.271Z,34.03
2019-03-15T18:18:19.959Z,33.87
2019-03-15T18:20:49.767Z,33.67
2019-03-15T18:23:19.514Z,33.57
2019-03-15T18:25:49.206Z,33.87
2019-03-15T18:28:18.997Z,33.66
2019-03-15T18:30:48.795Z,33.54
2019-03-15T18:33:21.359Z,33.70
2019-03-15T18:35:51.205Z,33.48
2019-03-15T18:38:20.922Z,33.44
2019-03-15T18:40:50.776Z,33.48
2019-03-15T18:43:20.521Z,33.51
2019-03-15T18:45:50.271Z,33.67
2019-03-15T18:48:20.029Z,33.56
2019-03-15T18:50:49.773Z,33.47
2019-03-15T18:53:19.457Z,33.65
2019-03-15T18:55:49.181Z,33.30
2019-03-15T18:58:18.900Z,33.37
2019-03-15T19:00:48.702Z,33.29
2019-03-15T19:03:18.444Z,33.23
2019-03-15T19:06:11.322Z,33.23
2019-03-15T19:08:42.681Z,33.31
2019-03-15T19:11:12.473Z,33.16
2019-03-15T19:13:42.253Z,33.26
2019-03-15T19:16:20.033Z,33.26
2019-03-15T19:18:43.522Z,33.17
2019-03-15T19:21:13.420Z,33.24
2019-03-15T19:23:43.121Z,33.52
2019-03-15T19:26:12.988Z,33.55
2019-03-15T19:28:42.916Z,33.71
2019-03-15T19:31:12.641Z,33.81
2019-03-15T19:33:42.421Z,34.02
2019-03-15T19:36:12.313Z,34.16
2019-03-15T19:38:42.084Z,34.17
2019-03-15T19:41:11.836Z,34.18
2019-03-15T19:43:41.562Z,34.34
2019-03-15T19:46:11.451Z,34.43
2019-03-15T19:48:42.265Z,34.63
2019-03-15T19:51:12.420Z,34.56
2019-03-15T19:53:42.470Z,34.66
2019-03-15T19:56:13.264Z,34.79
2019-03-15T19:58:43.203Z,34.82
2019-03-15T20:01:13.064Z,34.89
2019-03-15T20:03:44.185Z,34.84
2019-03-15T20:06:14.328Z,34.81
2019-03-15T20:08:44.330Z,34.78
2019-03-15T20:11:14.166Z,34.94
2019-03-15T20:13:44.067Z,34.86
2019-03-15T20:16:14.064Z,34.93
2019-03-15T20:18:44.123Z,35.09
2019-03-15T20:21:13.921Z,35.21
2019-03-15T20:23:43.874Z,35.22
2019-03-15T20:26:13.944Z,35.05
2019-03-15T20:28:43.771Z,34.99
2019-03-15T20:31:13.602Z,34.93
2019-03-15T20:33:43.428Z,34.96
2019-03-15T20:36:13.290Z,34.96
2019-03-15T20:38:43.288Z,34.86
2019-03-15T20:41:13.065Z,34.93
2019-03-15T20:43:43.077Z,34.71
2019-03-15T20:46:15.749Z,34.75
2019-03-15T20:48:44.381Z,34.77
2019-03-15T20:51:14.113Z,34.80
2019-03-15T20:53:44.048Z,34.85
2019-03-15T20:56:14.021Z,34.87
2019-03-15T20:58:43.931Z,34.69
2019-03-15T21:01:13.703Z,34.75
2019-03-15T21:03:55.494Z,34.86
2019-03-15T21:06:14.938Z,34.90
2019-03-15T21:08:44.823Z,34.75
2019-03-15T21:11:14.662Z,34.77
2019-03-15T21:13:44.497Z,34.83
2019-03-15T21:16:14.429Z,34.76
2019-03-15T21:18:44.265Z,34.85
2019-03-15T21:21:14.110Z,34.69
2019-03-15T21:23:43.943Z,34.77
2019-03-15T21:26:13.786Z,34.87
2019-03-15T21:28:43.604Z,34.86
2019-03-15T21:31:13.459Z,34.88
2019-03-15T21:33:43.213Z,34.93
2019-03-15T21:36:13.223Z,34.89
2019-03-15T21:38:48.188Z,34.88
2019-03-15T21:41:14.628Z,35.02
2019-03-15T21:43:44.464Z,35.02
2019-03-15T21:46:14.393Z,35.25
2019-03-15T21:48:44.225Z,35.14
2019-03-15T21:51:14.122Z,35.19
2019-03-15T21:53:44.023Z,35.37
2019-03-15T21:56:13.814Z,35.26
2019-03-15T21:58:43.473Z,35.26
2019-03-15T22:01:13.268Z,35.27
2019-03-15T22:03:43.158Z,35.17
2019-03-15T22:06:13.064Z,35.42
2019-03-15T22:08:42.852Z,35.52
2019-03-15T22:11:21.035Z,35.43
2019-03-15T22:13:44.455Z,35.42
2019-03-15T22:16:14.310Z,35.34
2019-03-15T22:18:44.122Z,35.31
2019-03-15T22:21:14.101Z,35.24
2019-03-15T22:23:43.981Z,35.26
2019-03-15T22:26:15.108Z,35.28
2019-03-15T22:28:44.974Z,35.17
2019-03-15T22:31:16.827Z,35.05
2019-03-15T22:33:46.665Z,34.90
2019-03-15T22:36:16.517Z,34.98
2019-03-15T22:38:46.315Z,35.06
2019-03-15T22:41:16.269Z,34.84
2019-03-15T22:43:46.193Z,34.81
2019-03-15T22:46:16.207Z,34.43
2019-03-15T22:48:45.976Z,34.18
2019-03-15T22:51:15.929Z,34.08
2019-03-15T22:53:45.802Z,34.04
2019-03-15T22:56:15.638Z,33.86
2019-03-15T22:58:45.482Z,33.67
2019-03-15T23:01:15.390Z,33.74
2019-03-15T23:03:45.230Z,33.30
2019-03-15T23:06:15.111Z,33.15
2019-03-15T23:08:44.903Z,32.74
2019-03-15T23:11:14.780Z,33.04
2019-03-15T23:13:44.602Z,32.83
2019-03-15T23:16:14.550Z,32.54
2019-03-15T23:18:44.492Z,32.56
2019-03-15T23:21:14.367Z,32.83
2019-03-15T23:23:44.088Z,32.91
2019-03-15T23:26:14.053Z,32.68
2019-03-15T23:28:47.128Z,32.58
2019-03-15T23:31:15.357Z,32.75
2019-03-15T23:33:45.165Z,32.46
2019-03-15T23:36:15.002Z,32.68
2019-03-15T23:38:45.375Z,32.65
2019-03-15T23:41:15.176Z,32.61
2019-03-15T23:43:44.960Z,32.46
2019-03-15T23:46:14.667Z,32.83
2019-03-15T23:48:44.597Z,32.71
2019-03-15T23:51:14.363Z,32.69
2019-03-15T23:53:44.268Z,32.48
2019-03-15T23:56:14.074Z,32.46
2019-03-15T23:58:43.931Z,32.66
